sensor_id;sensor_type;location;lat;lon;timestamp;P1;durP1;ratioP1;P2;durP2;ratioP2
82871;SDS011;72646;43.596;1.428;2024-01-27T00:01:43;11.05;;;6.85;;
82871;SDS011;72646;43.596;1.428;2024-01-27T00:04:09;11.27;;;6.90;;
82871;SDS011;72646;43.596;1.428;2024-01-27T00:06:35;11.25;;;6.65;;
82871;SDS011;72646;43.596;1.428;2024-01-27T00:09:00;10.77;;;6.50;;
82871;SDS011;72646;43.596;1.428;2024-01-27T00:11:25;11.88;;;7.25;;
82871;SDS011;72646;43.596;1.428;2024-01-27T00:13:51;11.95;;;7.05;;
82871;SDS011;72646;43.596;1.428;2024-01-27T00:16:17;10.68;;;6.50;;
82871;SDS011;72646;43.596;1.428;2024-01-27T00:18:42;11.02;;;5.97;;
82871;SDS011;72646;43.596;1.428;2024-01-27T00:21:07;11.60;;;6.97;;
82871;SDS011;72646;43.596;1.428;2024-01-27T00:23:33;10.95;;;6.57;;
82871;SDS011;72646;43.596;1.428;2024-01-27T00:26:02;12.38;;;7.20;;
82871;SDS011;72646;43.596;1.428;2024-01-27T00:28:27;11.32;;;7.00;;
82871;SDS011;72646;43.596;1.428;2024-01-27T00:30:53;11.02;;;6.70;;
82871;SDS011;72646;43.596;1.428;2024-01-27T00:33:18;12.73;;;6.97;;
82871;SDS011;72646;43.596;1.428;2024-01-27T00:35:44;12.27;;;7.25;;
82871;SDS011;72646;43.596;1.428;2024-01-27T00:38:09;11.68;;;7.00;;
82871;SDS011;72646;43.596;1.428;2024-01-27T00:40:35;12.52;;;6.70;;
82871;SDS011;72646;43.596;1.428;2024-01-27T00:43:02;11.63;;;6.50;;
82871;SDS011;72646;43.596;1.428;2024-01-27T00:45:28;11.95;;;6.82;;
82871;SDS011;72646;43.596;1.428;2024-01-27T00:47:55;12.20;;;7.13;;
82871;SDS011;72646;43.596;1.428;2024-01-27T00:50:23;11.48;;;6.53;;
82871;SDS011;72646;43.596;1.428;2024-01-27T00:52:49;11.15;;;6.50;;
82871;SDS011;72646;43.596;1.428;2024-01-27T00:55:14;11.93;;;6.68;;
82871;SDS011;72646;43.596;1.428;2024-01-27T00:57:40;11.48;;;6.93;;
82871;SDS011;72646;43.596;1.428;2024-01-27T01:00:05;10.57;;;6.00;;
82871;SDS011;72646;43.596;1.428;2024-01-27T01:04:57;12.00;;;6.70;;
82871;SDS011;72646;43.596;1.428;2024-01-27T01:07:22;10.82;;;6.22;;
82871;SDS011;72646;43.596;1.428;2024-01-27T01:09:48;12.40;;;7.50;;
82871;SDS011;72646;43.596;1.428;2024-01-27T01:12:13;11.23;;;6.60;;
82871;SDS011;72646;43.596;1.428;2024-01-27T01:17:05;10.77;;;6.30;;
82871;SDS011;72646;43.596;1.428;2024-01-27T01:19:30;10.93;;;5.97;;
82871;SDS011;72646;43.596;1.428;2024-01-27T01:21:56;11.40;;;6.78;;
82871;SDS011;72646;43.596;1.428;2024-01-27T01:24:21;10.98;;;6.07;;
82871;SDS011;72646;43.596;1.428;2024-01-27T01:26:47;11.85;;;6.40;;
82871;SDS011;72646;43.596;1.428;2024-01-27T01:29:12;11.05;;;5.97;;
82871;SDS011;72646;43.596;1.428;2024-01-27T01:31:38;9.98;;;5.30;;
82871;SDS011;72646;43.596;1.428;2024-01-27T01:34:03;9.55;;;5.45;;
82871;SDS011;72646;43.596;1.428;2024-01-27T01:36:28;11.23;;;5.80;;
82871;SDS011;72646;43.596;1.428;2024-01-27T01:38:54;11.10;;;5.95;;
82871;SDS011;72646;43.596;1.428;2024-01-27T01:41:19;11.07;;;6.00;;
82871;SDS011;72646;43.596;1.428;2024-01-27T01:43:44;11.02;;;5.63;;
82871;SDS011;72646;43.596;1.428;2024-01-27T01:46:10;10.10;;;5.28;;
82871;SDS011;72646;43.596;1.428;2024-01-27T01:48:35;11.82;;;5.85;;
82871;SDS011;72646;43.596;1.428;2024-01-27T01:51:01;9.73;;;5.65;;
82871;SDS011;72646;43.596;1.428;2024-01-27T01:53:27;10.20;;;5.78;;
82871;SDS011;72646;43.596;1.428;2024-01-27T01:55:53;10.43;;;5.70;;
82871;SDS011;72646;43.596;1.428;2024-01-27T01:58:18;10.15;;;5.55;;
82871;SDS011;72646;43.596;1.428;2024-01-27T02:00:44;10.55;;;5.88;;
82871;SDS011;72646;43.596;1.428;2024-01-27T02:03:12;9.85;;;5.55;;
82871;SDS011;72646;43.596;1.428;2024-01-27T02:05:38;10.38;;;5.70;;
82871;SDS011;72646;43.596;1.428;2024-01-27T02:08:04;9.35;;;5.22;;
82871;SDS011;72646;43.596;1.428;2024-01-27T02:10:30;9.10;;;5.30;;
82871;SDS011;72646;43.596;1.428;2024-01-27T02:13:04;9.50;;;5.32;;
82871;SDS011;72646;43.596;1.428;2024-01-27T02:15:43;8.85;;;4.60;;
82871;SDS011;72646;43.596;1.428;2024-01-27T02:18:09;9.65;;;5.05;;
82871;SDS011;72646;43.596;1.428;2024-01-27T02:20:34;9.38;;;5.10;;
82871;SDS011;72646;43.596;1.428;2024-01-27T02:22:59;9.23;;;4.72;;
82871;SDS011;72646;43.596;1.428;2024-01-27T02:25:28;9.77;;;4.85;;
82871;SDS011;72646;43.596;1.428;2024-01-27T02:27:54;8.75;;;4.63;;
82871;SDS011;72646;43.596;1.428;2024-01-27T02:30:19;9.13;;;4.78;;
82871;SDS011;72646;43.596;1.428;2024-01-27T02:32:44;8.10;;;4.38;;
82871;SDS011;72646;43.596;1.428;2024-01-27T02:35:10;9.13;;;4.53;;
82871;SDS011;72646;43.596;1.428;2024-01-27T02:37:35;8.23;;;4.55;;
82871;SDS011;72646;43.596;1.428;2024-01-27T02:40:00;8.57;;;4.65;;
82871;SDS011;72646;43.596;1.428;2024-01-27T02:42:26;8.02;;;4.30;;
82871;SDS011;72646;43.596;1.428;2024-01-27T02:44:51;8.35;;;4.20;;
82871;SDS011;72646;43.596;1.428;2024-01-27T02:47:17;8.55;;;4.43;;
82871;SDS011;72646;43.596;1.428;2024-01-27T02:49:42;8.38;;;4.47;;
82871;SDS011;72646;43.596;1.428;2024-01-27T02:52:07;8.90;;;4.50;;
82871;SDS011;72646;43.596;1.428;2024-01-27T02:54:34;9.00;;;4.13;;
82871;SDS011;72646;43.596;1.428;2024-01-27T02:56:59;7.80;;;4.20;;
82871;SDS011;72646;43.596;1.428;2024-01-27T02:59:24;8.23;;;4.03;;
82871;SDS011;72646;43.596;1.428;2024-01-27T03:01:50;8.45;;;4.40;;
82871;SDS011;72646;43.596;1.428;2024-01-27T03:04:15;8.13;;;4.28;;
82871;SDS011;72646;43.596;1.428;2024-01-27T03:06:41;7.95;;;4.05;;
82871;SDS011;72646;43.596;1.428;2024-01-27T03:09:06;8.40;;;4.55;;
82871;SDS011;72646;43.596;1.428;2024-01-27T03:11:32;8.15;;;4.13;;
82871;SDS011;72646;43.596;1.428;2024-01-27T03:13:57;8.55;;;4.15;;
82871;SDS011;72646;43.596;1.428;2024-01-27T03:16:22;7.57;;;3.80;;
82871;SDS011;72646;43.596;1.428;2024-01-27T03:18:48;7.75;;;3.28;;
82871;SDS011;72646;43.596;1.428;2024-01-27T03:21:13;7.80;;;3.88;;
82871;SDS011;72646;43.596;1.428;2024-01-27T03:23:38;7.32;;;3.63;;
82871;SDS011;72646;43.596;1.428;2024-01-27T03:26:04;7.88;;;3.70;;
82871;SDS011;72646;43.596;1.428;2024-01-27T03:28:29;7.85;;;3.72;;
82871;SDS011;72646;43.596;1.428;2024-01-27T03:30:55;7.90;;;3.88;;
82871;SDS011;72646;43.596;1.428;2024-01-27T03:33:20;7.50;;;3.47;;
82871;SDS011;72646;43.596;1.428;2024-01-27T03:35:47;7.32;;;3.42;;
82871;SDS011;72646;43.596;1.428;2024-01-27T03:38:13;7.93;;;3.80;;
82871;SDS011;72646;43.596;1.428;2024-01-27T03:40:38;7.10;;;3.50;;
82871;SDS011;72646;43.596;1.428;2024-01-27T03:43:04;7.82;;;3.30;;
82871;SDS011;72646;43.596;1.428;2024-01-27T03:45:29;7.07;;;3.58;;
82871;SDS011;72646;43.596;1.428;2024-01-27T03:47:54;7.18;;;3.60;;
82871;SDS011;72646;43.596;1.428;2024-01-27T03:50:20;7.55;;;3.58;;
82871;SDS011;72646;43.596;1.428;2024-01-27T03:52:45;6.63;;;3.30;;
82871;SDS011;72646;43.596;1.428;2024-01-27T03:55:11;7.38;;;3.40;;
82871;SDS011;72646;43.596;1.428;2024-01-27T03:57:36;7.30;;;3.33;;
82871;SDS011;72646;43.596;1.428;2024-01-27T04:00:02;7.30;;;3.30;;
82871;SDS011;72646;43.596;1.428;2024-01-27T04:02:29;7.18;;;3.33;;
82871;SDS011;72646;43.596;1.428;2024-01-27T04:04:54;7.25;;;3.40;;
82871;SDS011;72646;43.596;1.428;2024-01-27T04:07:20;7.10;;;3.58;;
82871;SDS011;72646;43.596;1.428;2024-01-27T04:09:45;7.85;;;3.50;;
82871;SDS011;72646;43.596;1.428;2024-01-27T04:12:10;6.78;;;2.97;;
82871;SDS011;72646;43.596;1.428;2024-01-27T04:14:36;7.25;;;3.45;;
82871;SDS011;72646;43.596;1.428;2024-01-27T04:17:01;6.57;;;3.05;;
82871;SDS011;72646;43.596;1.428;2024-01-27T04:19:27;6.95;;;2.97;;
82871;SDS011;72646;43.596;1.428;2024-01-27T04:21:52;6.90;;;3.28;;
82871;SDS011;72646;43.596;1.428;2024-01-27T04:24:17;7.68;;;3.38;;
82871;SDS011;72646;43.596;1.428;2024-01-27T04:26:43;8.00;;;3.70;;
82871;SDS011;72646;43.596;1.428;2024-01-27T04:29:08;7.07;;;3.30;;
82871;SDS011;72646;43.596;1.428;2024-01-27T04:31:34;6.45;;;2.80;;
82871;SDS011;72646;43.596;1.428;2024-01-27T04:34:04;6.72;;;3.00;;
82871;SDS011;72646;43.596;1.428;2024-01-27T04:36:30;6.93;;;3.28;;
82871;SDS011;72646;43.596;1.428;2024-01-27T04:38:55;6.97;;;3.10;;
82871;SDS011;72646;43.596;1.428;2024-01-27T04:41:21;6.80;;;3.20;;
82871;SDS011;72646;43.596;1.428;2024-01-27T04:43:46;6.80;;;2.97;;
82871;SDS011;72646;43.596;1.428;2024-01-27T04:46:12;6.85;;;3.15;;
82871;SDS011;72646;43.596;1.428;2024-01-27T04:48:37;6.85;;;3.10;;
82871;SDS011;72646;43.596;1.428;2024-01-27T04:51:03;6.75;;;3.03;;
82871;SDS011;72646;43.596;1.428;2024-01-27T04:53:28;7.10;;;3.30;;
82871;SDS011;72646;43.596;1.428;2024-01-27T04:55:53;6.50;;;3.10;;
82871;SDS011;72646;43.596;1.428;2024-01-27T04:58:19;7.15;;;3.20;;
82871;SDS011;72646;43.596;1.428;2024-01-27T05:00:44;6.72;;;2.88;;
82871;SDS011;72646;43.596;1.428;2024-01-27T05:03:10;6.32;;;2.90;;
82871;SDS011;72646;43.596;1.428;2024-01-27T05:05:40;6.95;;;3.13;;
82871;SDS011;72646;43.596;1.428;2024-01-27T05:08:06;6.70;;;2.90;;
82871;SDS011;72646;43.596;1.428;2024-01-27T05:10:31;6.30;;;2.80;;
82871;SDS011;72646;43.596;1.428;2024-01-27T05:12:57;6.57;;;2.80;;
82871;SDS011;72646;43.596;1.428;2024-01-27T05:15:22;6.47;;;2.70;;
82871;SDS011;72646;43.596;1.428;2024-01-27T05:17:48;6.20;;;2.65;;
82871;SDS011;72646;43.596;1.428;2024-01-27T05:20:13;6.38;;;2.88;;
82871;SDS011;72646;43.596;1.428;2024-01-27T05:22:38;6.45;;;2.90;;
82871;SDS011;72646;43.596;1.428;2024-01-27T05:25:04;6.25;;;2.85;;
82871;SDS011;72646;43.596;1.428;2024-01-27T05:27:30;6.28;;;2.60;;
82871;SDS011;72646;43.596;1.428;2024-01-27T05:29:55;6.15;;;2.60;;
82871;SDS011;72646;43.596;1.428;2024-01-27T05:32:20;6.85;;;3.00;;
82871;SDS011;72646;43.596;1.428;2024-01-27T05:34:46;6.13;;;2.70;;
82871;SDS011;72646;43.596;1.428;2024-01-27T05:37:11;6.72;;;2.60;;
82871;SDS011;72646;43.596;1.428;2024-01-27T05:39:38;6.35;;;2.70;;
82871;SDS011;72646;43.596;1.428;2024-01-27T05:42:03;6.10;;;2.47;;
82871;SDS011;72646;43.596;1.428;2024-01-27T05:44:29;6.32;;;2.50;;
82871;SDS011;72646;43.596;1.428;2024-01-27T05:46:54;6.20;;;2.65;;
82871;SDS011;72646;43.596;1.428;2024-01-27T05:49:20;5.82;;;2.55;;
82871;SDS011;72646;43.596;1.428;2024-01-27T05:51:45;5.88;;;2.40;;
82871;SDS011;72646;43.596;1.428;2024-01-27T05:54:10;5.80;;;2.42;;
82871;SDS011;72646;43.596;1.428;2024-01-27T05:56:39;5.85;;;2.45;;
82871;SDS011;72646;43.596;1.428;2024-01-27T05:59:05;5.75;;;2.30;;
82871;SDS011;72646;43.596;1.428;2024-01-27T06:01:31;5.55;;;2.10;;
82871;SDS011;72646;43.596;1.428;2024-01-27T06:03:56;5.57;;;2.10;;
82871;SDS011;72646;43.596;1.428;2024-01-27T06:06:22;5.53;;;2.15;;
82871;SDS011;72646;43.596;1.428;2024-01-27T06:08:47;5.80;;;2.40;;
82871;SDS011;72646;43.596;1.428;2024-01-27T06:11:12;6.30;;;2.50;;
82871;SDS011;72646;43.596;1.428;2024-01-27T06:13:38;7.10;;;2.30;;
82871;SDS011;72646;43.596;1.428;2024-01-27T06:16:08;5.50;;;2.25;;
82871;SDS011;72646;43.596;1.428;2024-01-27T06:18:34;5.28;;;2.17;;
82871;SDS011;72646;43.596;1.428;2024-01-27T06:21:00;6.15;;;2.20;;
82871;SDS011;72646;43.596;1.428;2024-01-27T06:23:26;5.38;;;2.08;;
82871;SDS011;72646;43.596;1.428;2024-01-27T06:25:51;5.30;;;1.92;;
82871;SDS011;72646;43.596;1.428;2024-01-27T06:28:17;5.20;;;1.90;;
82871;SDS011;72646;43.596;1.428;2024-01-27T06:30:42;6.00;;;2.20;;
82871;SDS011;72646;43.596;1.428;2024-01-27T06:33:08;5.63;;;2.10;;
82871;SDS011;72646;43.596;1.428;2024-01-27T06:35:33;5.78;;;2.22;;
82871;SDS011;72646;43.596;1.428;2024-01-27T06:37:58;5.28;;;1.95;;
82871;SDS011;72646;43.596;1.428;2024-01-27T06:40:24;5.45;;;2.05;;
82871;SDS011;72646;43.596;1.428;2024-01-27T06:42:49;5.78;;;1.90;;
82871;SDS011;72646;43.596;1.428;2024-01-27T06:45:15;5.22;;;1.90;;
82871;SDS011;72646;43.596;1.428;2024-01-27T06:47:41;5.30;;;1.95;;
82871;SDS011;72646;43.596;1.428;2024-01-27T06:50:06;5.50;;;1.98;;
82871;SDS011;72646;43.596;1.428;2024-01-27T06:52:32;5.30;;;1.98;;
82871;SDS011;72646;43.596;1.428;2024-01-27T06:54:57;5.20;;;1.90;;
82871;SDS011;72646;43.596;1.428;2024-01-27T06:57:23;5.10;;;1.88;;
82871;SDS011;72646;43.596;1.428;2024-01-27T06:59:50;4.97;;;1.60;;
82871;SDS011;72646;43.596;1.428;2024-01-27T07:02:27;5.05;;;1.70;;
82871;SDS011;72646;43.596;1.428;2024-01-27T07:04:54;5.30;;;1.88;;
82871;SDS011;72646;43.596;1.428;2024-01-27T07:07:21;4.60;;;1.52;;
82871;SDS011;72646;43.596;1.428;2024-01-27T07:09:52;5.20;;;1.70;;
82871;SDS011;72646;43.596;1.428;2024-01-27T07:12:19;5.50;;;1.80;;
82871;SDS011;72646;43.596;1.428;2024-01-27T07:14:45;4.50;;;1.50;;
82871;SDS011;72646;43.596;1.428;2024-01-27T07:17:10;4.97;;;1.75;;
82871;SDS011;72646;43.596;1.428;2024-01-27T07:19:36;5.10;;;1.80;;
82871;SDS011;72646;43.596;1.428;2024-01-27T07:22:01;4.72;;;1.52;;
82871;SDS011;72646;43.596;1.428;2024-01-27T07:24:28;5.22;;;1.60;;
82871;SDS011;72646;43.596;1.428;2024-01-27T07:26:54;4.68;;;1.40;;
82871;SDS011;72646;43.596;1.428;2024-01-27T07:29:19;4.95;;;1.70;;
82871;SDS011;72646;43.596;1.428;2024-01-27T07:31:45;4.70;;;1.35;;
82871;SDS011;72646;43.596;1.428;2024-01-27T07:34:11;4.93;;;1.55;;
82871;SDS011;72646;43.596;1.428;2024-01-27T07:36:36;4.63;;;1.40;;
82871;SDS011;72646;43.596;1.428;2024-01-27T07:39:02;4.68;;;1.40;;
82871;SDS011;72646;43.596;1.428;2024-01-27T07:41:29;4.88;;;1.58;;
82871;SDS011;72646;43.596;1.428;2024-01-27T07:43:55;5.18;;;1.50;;
82871;SDS011;72646;43.596;1.428;2024-01-27T07:46:21;4.15;;;1.30;;
82871;SDS011;72646;43.596;1.428;2024-01-27T07:48:47;5.10;;;1.50;;
82871;SDS011;72646;43.596;1.428;2024-01-27T07:51:14;4.70;;;1.50;;
82871;SDS011;72646;43.596;1.428;2024-01-27T07:53:40;4.50;;;1.50;;
82871;SDS011;72646;43.596;1.428;2024-01-27T07:56:05;4.80;;;1.50;;
82871;SDS011;72646;43.596;1.428;2024-01-27T07:58:32;4.85;;;1.60;;
82871;SDS011;72646;43.596;1.428;2024-01-27T08:00:58;4.40;;;1.30;;
82871;SDS011;72646;43.596;1.428;2024-01-27T08:03:24;4.68;;;1.40;;
82871;SDS011;72646;43.596;1.428;2024-01-27T08:05:49;4.30;;;1.40;;
82871;SDS011;72646;43.596;1.428;2024-01-27T08:08:15;3.92;;;1.40;;
82871;SDS011;72646;43.596;1.428;2024-01-27T08:10:40;4.55;;;1.40;;
82871;SDS011;72646;43.596;1.428;2024-01-27T08:13:05;5.10;;;1.50;;
82871;SDS011;72646;43.596;1.428;2024-01-27T08:15:32;4.95;;;1.40;;
82871;SDS011;72646;43.596;1.428;2024-01-27T08:17:57;4.43;;;1.35;;
82871;SDS011;72646;43.596;1.428;2024-01-27T08:20:22;4.68;;;1.30;;
82871;SDS011;72646;43.596;1.428;2024-01-27T08:22:48;3.97;;;1.33;;
82871;SDS011;72646;43.596;1.428;2024-01-27T08:25:16;4.70;;;1.45;;
82871;SDS011;72646;43.596;1.428;2024-01-27T08:27:43;5.00;;;1.38;;
82871;SDS011;72646;43.596;1.428;2024-01-27T08:30:08;4.10;;;1.23;;
82871;SDS011;72646;43.596;1.428;2024-01-27T08:32:35;4.20;;;1.30;;
82871;SDS011;72646;43.596;1.428;2024-01-27T08:35:00;4.43;;;1.40;;
82871;SDS011;72646;43.596;1.428;2024-01-27T08:37:25;4.72;;;1.30;;
82871;SDS011;72646;43.596;1.428;2024-01-27T08:39:51;4.03;;;1.20;;
82871;SDS011;72646;43.596;1.428;2024-01-27T08:42:16;4.30;;;1.42;;
82871;SDS011;72646;43.596;1.428;2024-01-27T08:44:42;4.63;;;1.38;;
82871;SDS011;72646;43.596;1.428;2024-01-27T08:47:07;4.50;;;1.42;;
82871;SDS011;72646;43.596;1.428;2024-01-27T08:49:33;4.85;;;1.40;;
82871;SDS011;72646;43.596;1.428;2024-01-27T08:51:58;4.68;;;1.20;;
82871;SDS011;72646;43.596;1.428;2024-01-27T08:54:24;4.43;;;1.45;;
82871;SDS011;72646;43.596;1.428;2024-01-27T08:56:49;4.57;;;1.38;;
82871;SDS011;72646;43.596;1.428;2024-01-27T08:59:15;4.72;;;1.33;;
82871;SDS011;72646;43.596;1.428;2024-01-27T09:01:41;5.40;;;1.60;;
82871;SDS011;72646;43.596;1.428;2024-01-27T09:04:07;5.10;;;1.60;;
82871;SDS011;72646;43.596;1.428;2024-01-27T09:06:32;4.68;;;1.33;;
82871;SDS011;72646;43.596;1.428;2024-01-27T09:08:58;5.00;;;1.50;;
82871;SDS011;72646;43.596;1.428;2024-01-27T09:11:23;4.45;;;1.35;;
82871;SDS011;72646;43.596;1.428;2024-01-27T09:13:49;4.93;;;1.50;;
82871;SDS011;72646;43.596;1.428;2024-01-27T09:16:17;4.63;;;1.40;;
82871;SDS011;72646;43.596;1.428;2024-01-27T09:18:43;4.55;;;1.30;;
82871;SDS011;72646;43.596;1.428;2024-01-27T09:21:08;4.65;;;1.40;;
82871;SDS011;72646;43.596;1.428;2024-01-27T09:23:34;4.32;;;1.30;;
82871;SDS011;72646;43.596;1.428;2024-01-27T09:26:02;4.38;;;1.13;;
82871;SDS011;72646;43.596;1.428;2024-01-27T09:28:28;4.85;;;1.48;;
82871;SDS011;72646;43.596;1.428;2024-01-27T09:30:53;4.35;;;1.38;;
82871;SDS011;72646;43.596;1.428;2024-01-27T09:33:18;5.03;;;1.40;;
82871;SDS011;72646;43.596;1.428;2024-01-27T09:35:49;4.82;;;1.30;;
82871;SDS011;72646;43.596;1.428;2024-01-27T09:38:14;4.75;;;1.42;;
82871;SDS011;72646;43.596;1.428;2024-01-27T09:40:43;4.68;;;1.40;;
82871;SDS011;72646;43.596;1.428;2024-01-27T09:43:09;3.97;;;1.20;;
82871;SDS011;72646;43.596;1.428;2024-01-27T09:45:38;4.85;;;1.30;;
82871;SDS011;72646;43.596;1.428;2024-01-27T09:48:04;4.88;;;1.50;;
82871;SDS011;72646;43.596;1.428;2024-01-27T09:50:33;4.85;;;1.48;;
82871;SDS011;72646;43.596;1.428;2024-01-27T09:53:05;4.13;;;1.40;;
82871;SDS011;72646;43.596;1.428;2024-01-27T09:55:43;4.38;;;1.30;;
82871;SDS011;72646;43.596;1.428;2024-01-27T09:58:09;5.10;;;1.50;;
82871;SDS011;72646;43.596;1.428;2024-01-27T10:00:36;4.43;;;1.45;;
82871;SDS011;72646;43.596;1.428;2024-01-27T10:03:03;4.65;;;1.30;;
82871;SDS011;72646;43.596;1.428;2024-01-27T10:05:31;4.95;;;1.52;;
82871;SDS011;72646;43.596;1.428;2024-01-27T10:07:57;4.38;;;1.20;;
82871;SDS011;72646;43.596;1.428;2024-01-27T10:10:23;4.75;;;1.40;;
82871;SDS011;72646;43.596;1.428;2024-01-27T10:12:48;4.85;;;1.30;;
82871;SDS011;72646;43.596;1.428;2024-01-27T10:15:22;5.07;;;1.40;;
82871;SDS011;72646;43.596;1.428;2024-01-27T10:17:48;4.50;;;1.50;;
82871;SDS011;72646;43.596;1.428;2024-01-27T10:20:13;4.70;;;1.50;;
82871;SDS011;72646;43.596;1.428;2024-01-27T10:22:44;4.93;;;1.40;;
82871;SDS011;72646;43.596;1.428;2024-01-27T10:25:10;5.00;;;1.30;;
82871;SDS011;72646;43.596;1.428;2024-01-27T10:30:02;4.80;;;1.50;;
82871;SDS011;72646;43.596;1.428;2024-01-27T10:32:28;4.22;;;1.30;;
82871;SDS011;72646;43.596;1.428;2024-01-27T10:35:04;5.07;;;1.55;;
82871;SDS011;72646;43.596;1.428;2024-01-27T10:37:30;5.22;;;1.60;;
82871;SDS011;72646;43.596;1.428;2024-01-27T10:40:14;4.93;;;1.50;;
82871;SDS011;72646;43.596;1.428;2024-01-27T10:42:41;4.63;;;1.40;;
82871;SDS011;72646;43.596;1.428;2024-01-27T10:45:09;4.95;;;1.48;;
82871;SDS011;72646;43.596;1.428;2024-01-27T10:47:36;4.45;;;1.48;;
82871;SDS011;72646;43.596;1.428;2024-01-27T10:50:06;5.00;;;1.50;;
82871;SDS011;72646;43.596;1.428;2024-01-27T10:52:37;4.72;;;1.40;;
82871;SDS011;72646;43.596;1.428;2024-01-27T10:55:04;4.97;;;1.60;;
82871;SDS011;72646;43.596;1.428;2024-01-27T10:57:33;5.03;;;1.50;;
82871;SDS011;72646;43.596;1.428;2024-01-27T11:00:03;5.55;;;1.70;;
82871;SDS011;72646;43.596;1.428;2024-01-27T11:02:34;4.70;;;1.42;;
82871;SDS011;72646;43.596;1.428;2024-01-27T11:05:04;5.03;;;1.50;;
82871;SDS011;72646;43.596;1.428;2024-01-27T11:07:32;5.03;;;1.50;;
82871;SDS011;72646;43.596;1.428;2024-01-27T11:09:59;5.80;;;1.50;;
82871;SDS011;72646;43.596;1.428;2024-01-27T11:12:25;5.07;;;1.77;;
82871;SDS011;72646;43.596;1.428;2024-01-27T11:14:51;4.97;;;1.70;;
82871;SDS011;72646;43.596;1.428;2024-01-27T11:17:18;4.97;;;1.65;;
82871;SDS011;72646;43.596;1.428;2024-01-27T11:19:47;6.90;;;1.90;;
82871;SDS011;72646;43.596;1.428;2024-01-27T11:22:48;5.25;;;1.63;;
82871;SDS011;72646;43.596;1.428;2024-01-27T11:27:36;4.93;;;1.50;;
82871;SDS011;72646;43.596;1.428;2024-01-27T11:30:03;4.97;;;1.60;;
82871;SDS011;72646;43.596;1.428;2024-01-27T11:32:29;5.20;;;1.70;;
82871;SDS011;72646;43.596;1.428;2024-01-27T11:34:55;4.93;;;1.67;;
82871;SDS011;72646;43.596;1.428;2024-01-27T11:37:21;5.45;;;1.83;;
82871;SDS011;72646;43.596;1.428;2024-01-27T11:39:50;5.97;;;1.85;;
82871;SDS011;72646;43.596;1.428;2024-01-27T11:42:17;4.85;;;1.60;;
82871;SDS011;72646;43.596;1.428;2024-01-27T11:44:43;5.50;;;1.70;;
82871;SDS011;72646;43.596;1.428;2024-01-27T11:47:15;5.20;;;1.80;;
82871;SDS011;72646;43.596;1.428;2024-01-27T11:49:42;6.05;;;1.88;;
82871;SDS011;72646;43.596;1.428;2024-01-27T11:52:08;5.07;;;1.80;;
82871;SDS011;72646;43.596;1.428;2024-01-27T11:54:43;6.25;;;1.95;;
82871;SDS011;72646;43.596;1.428;2024-01-27T11:57:11;5.97;;;1.92;;
82871;SDS011;72646;43.596;1.428;2024-01-27T11:59:36;5.43;;;1.92;;
82871;SDS011;72646;43.596;1.428;2024-01-27T12:02:02;5.43;;;2.00;;
82871;SDS011;72646;43.596;1.428;2024-01-27T12:04:28;5.85;;;1.90;;
82871;SDS011;72646;43.596;1.428;2024-01-27T12:06:53;5.93;;;2.05;;
82871;SDS011;72646;43.596;1.428;2024-01-27T12:09:19;5.53;;;1.80;;
82871;SDS011;72646;43.596;1.428;2024-01-27T12:11:45;5.60;;;1.90;;
82871;SDS011;72646;43.596;1.428;2024-01-27T12:14:11;5.18;;;1.90;;
82871;SDS011;72646;43.596;1.428;2024-01-27T12:16:37;5.70;;;2.20;;
82871;SDS011;72646;43.596;1.428;2024-01-27T12:19:03;6.25;;;2.38;;
82871;SDS011;72646;43.596;1.428;2024-01-27T12:21:28;6.65;;;2.00;;
82871;SDS011;72646;43.596;1.428;2024-01-27T12:23:55;5.80;;;1.95;;
82871;SDS011;72646;43.596;1.428;2024-01-27T12:26:22;5.85;;;1.98;;
82871;SDS011;72646;43.596;1.428;2024-01-27T12:28:49;5.97;;;2.13;;
82871;SDS011;72646;43.596;1.428;2024-01-27T12:31:16;5.88;;;2.28;;
82871;SDS011;72646;43.596;1.428;2024-01-27T12:33:49;6.13;;;1.92;;
82871;SDS011;72646;43.596;1.428;2024-01-27T12:36:16;6.03;;;2.22;;
82871;SDS011;72646;43.596;1.428;2024-01-27T12:38:46;5.85;;;2.20;;
82871;SDS011;72646;43.596;1.428;2024-01-27T12:41:30;6.40;;;2.10;;
82871;SDS011;72646;43.596;1.428;2024-01-27T12:43:57;6.35;;;2.22;;
82871;SDS011;72646;43.596;1.428;2024-01-27T12:46:24;5.82;;;2.03;;
82871;SDS011;72646;43.596;1.428;2024-01-27T12:48:50;6.45;;;2.20;;
82871;SDS011;72646;43.596;1.428;2024-01-27T12:51:15;5.60;;;2.25;;
82871;SDS011;72646;43.596;1.428;2024-01-27T12:53:41;6.25;;;2.25;;
82871;SDS011;72646;43.596;1.428;2024-01-27T12:56:12;6.55;;;2.30;;
82871;SDS011;72646;43.596;1.428;2024-01-27T12:58:39;6.25;;;2.40;;
82871;SDS011;72646;43.596;1.428;2024-01-27T13:01:05;6.30;;;2.40;;
82871;SDS011;72646;43.596;1.428;2024-01-27T13:03:31;5.70;;;2.10;;
82871;SDS011;72646;43.596;1.428;2024-01-27T13:05:57;6.40;;;2.10;;
82871;SDS011;72646;43.596;1.428;2024-01-27T13:08:23;6.70;;;2.50;;
82871;SDS011;72646;43.596;1.428;2024-01-27T13:10:49;6.53;;;2.33;;
82871;SDS011;72646;43.596;1.428;2024-01-27T13:13:14;6.53;;;2.65;;
82871;SDS011;72646;43.596;1.428;2024-01-27T13:15:40;5.97;;;2.20;;
82871;SDS011;72646;43.596;1.428;2024-01-27T13:18:05;6.15;;;2.20;;
82871;SDS011;72646;43.596;1.428;2024-01-27T13:20:31;6.63;;;2.67;;
82871;SDS011;72646;43.596;1.428;2024-01-27T13:22:58;5.95;;;2.30;;
82871;SDS011;72646;43.596;1.428;2024-01-27T13:25:25;6.18;;;2.30;;
82871;SDS011;72646;43.596;1.428;2024-01-27T13:27:50;6.50;;;2.65;;
82871;SDS011;72646;43.596;1.428;2024-01-27T13:30:16;6.57;;;2.33;;
82871;SDS011;72646;43.596;1.428;2024-01-27T13:32:44;5.95;;;2.30;;
82871;SDS011;72646;43.596;1.428;2024-01-27T13:35:10;5.65;;;1.92;;
82871;SDS011;72646;43.596;1.428;2024-01-27T13:37:35;6.47;;;2.50;;
82871;SDS011;72646;43.596;1.428;2024-01-27T13:42:32;5.80;;;2.10;;
82871;SDS011;72646;43.596;1.428;2024-01-27T13:44:58;6.55;;;2.15;;
82871;SDS011;72646;43.596;1.428;2024-01-27T13:47:24;5.65;;;2.10;;
82871;SDS011;72646;43.596;1.428;2024-01-27T13:49:49;6.03;;;2.38;;
82871;SDS011;72646;43.596;1.428;2024-01-27T13:52:15;6.53;;;2.47;;
82871;SDS011;72646;43.596;1.428;2024-01-27T13:54:40;6.35;;;2.28;;
82871;SDS011;72646;43.596;1.428;2024-01-27T13:57:06;6.25;;;2.50;;
82871;SDS011;72646;43.596;1.428;2024-01-27T13:59:33;6.18;;;2.33;;
82871;SDS011;72646;43.596;1.428;2024-01-27T14:01:58;6.50;;;2.63;;
82871;SDS011;72646;43.596;1.428;2024-01-27T14:04:24;6.40;;;2.53;;
82871;SDS011;72646;43.596;1.428;2024-01-27T14:06:52;6.55;;;2.55;;
82871;SDS011;72646;43.596;1.428;2024-01-27T14:09:18;7.53;;;2.50;;
82871;SDS011;72646;43.596;1.428;2024-01-27T14:11:45;7.50;;;2.60;;
82871;SDS011;72646;43.596;1.428;2024-01-27T14:14:10;6.63;;;2.50;;
82871;SDS011;72646;43.596;1.428;2024-01-27T14:19:02;8.03;;;2.50;;
82871;SDS011;72646;43.596;1.428;2024-01-27T14:21:27;6.90;;;2.70;;
82871;SDS011;72646;43.596;1.428;2024-01-27T14:23:53;6.38;;;2.40;;
82871;SDS011;72646;43.596;1.428;2024-01-27T14:26:29;7.22;;;2.85;;
82871;SDS011;72646;43.596;1.428;2024-01-27T14:28:54;8.02;;;2.88;;
82871;SDS011;72646;43.596;1.428;2024-01-27T14:31:20;6.57;;;2.50;;
82871;SDS011;72646;43.596;1.428;2024-01-27T14:33:47;6.63;;;2.30;;
82871;SDS011;72646;43.596;1.428;2024-01-27T14:36:13;6.78;;;2.70;;
82871;SDS011;72646;43.596;1.428;2024-01-27T14:38:39;7.05;;;2.80;;
82871;SDS011;72646;43.596;1.428;2024-01-27T14:41:06;8.02;;;2.85;;
82871;SDS011;72646;43.596;1.428;2024-01-27T14:43:36;7.10;;;2.88;;
82871;SDS011;72646;43.596;1.428;2024-01-27T14:46:02;6.72;;;2.60;;
82871;SDS011;72646;43.596;1.428;2024-01-27T14:48:28;6.75;;;2.67;;
82871;SDS011;72646;43.596;1.428;2024-01-27T14:50:53;6.20;;;2.50;;
82871;SDS011;72646;43.596;1.428;2024-01-27T14:53:23;6.30;;;2.75;;
82871;SDS011;72646;43.596;1.428;2024-01-27T14:55:52;6.45;;;2.60;;